createdAt,value
2022-08-07T00:02:58.858Z,23.4
2022-08-07T00:42:01.619Z,23.2
2022-08-07T01:01:48.286Z,23
2022-08-07T01:22:22.701Z,23.1
2022-08-07T01:42:37.274Z,22.8
2022-08-07T02:02:33.135Z,22.7
2022-08-07T02:22:10.748Z,22.5
2022-08-07T02:41:50.859Z,22.1
2022-08-07T03:01:55.169Z,22.2
2022-08-07T03:22:18.649Z,22.5
2022-08-07T03:41:50.839Z,22.5
2022-08-07T04:42:07.320Z,22.6
2022-08-07T05:01:50.722Z,22.5
2022-08-07T05:21:59.719Z,22.6
2022-08-07T05:42:33.566Z,22.5
2022-08-07T06:01:49.482Z,22.5
2022-08-07T06:23:46.966Z,22.5
2022-08-07T06:42:01.391Z,22.5
2022-08-07T07:02:14.667Z,22.5
2022-08-07T07:22:05.535Z,22.5
2022-08-07T07:42:13.841Z,22.6
2022-08-07T08:02:12.966Z,22.5
2022-08-07T08:22:57.887Z,22.4
2022-08-07T08:41:56.977Z,22.5
2022-08-07T09:42:17.088Z,22.4
2022-08-07T10:01:54.439Z,22.3
2022-08-07T11:02:33.733Z,21.9
2022-08-07T12:01:58.955Z,22.6
2022-08-07T12:21:56.107Z,22.7
2022-08-07T12:42:02.616Z,22.8
2022-08-07T13:02:02.274Z,22.8
2022-08-07T13:22:55.046Z,22.9
2022-08-07T14:02:29.554Z,22.9
2022-08-07T14:22:49.840Z,22.9
2022-08-07T14:42:19.018Z,22.9
2022-08-07T15:01:50.904Z,23
2022-08-07T15:22:16.605Z,23
2022-08-07T15:42:55.226Z,23.1
2022-08-07T16:02:15.013Z,23.3
2022-08-07T16:22:01.871Z,23.3
2022-08-07T16:42:36.559Z,23.4
2022-08-07T17:02:11.200Z,23.4
2022-08-07T17:22:36.353Z,23.3
2022-08-07T17:42:01.337Z,23.4
2022-08-07T18:02:23.849Z,23.3
2022-08-07T18:24:06.916Z,23.3
2022-08-07T18:42:29.159Z,23.3
2022-08-07T19:02:17.693Z,23.3
2022-08-07T19:21:58.357Z,23.3
2022-08-07T19:42:24.808Z,23
2022-08-07T20:01:53.087Z,22.8
2022-08-07T20:22:34.675Z,22.5
2022-08-07T20:41:53.547Z,22.4
2022-08-07T21:02:39.645Z,22.1
2022-08-07T21:21:57.328Z,22
2022-08-07T21:41:52.497Z,21.9
2022-08-07T22:02:08.035Z,21.8
2022-08-07T22:22:18.061Z,21.6
2022-08-07T22:42:33.490Z,21.5
2022-08-07T23:22:05.582Z,21.2
2022-08-07T23:42:15.578Z,21
